Time;durP1;ratioP1;P1;durP2;ratioP2;P2;SDS_P1;SDS_P2;PMS_P1;PMS_P2;Temp;Humidity;BMP_temperature;BMP_pressure;BME280_temperature;BME280_humidity;BME280_pressure;Samples;Min_cycle;Max_cycle;Signal;HPM_P1;HPM_P2
2023/03/17 00:00:35;;;;;;;11.18;3.92;;;;;;;;;;4984715;28;20037;-42
2023/03/17 00:03:01;;;;;;;8.88;4.30;;;;;;;;;;4986216;28;20035;-40
2023/03/17 00:05:32;;;;;;;9.80;3.15;;;;;;;;;;4985828;28;20045;-41
2023/03/17 00:08:11;;;;;;;17.30;5.63;;;;;;;;;;4984508;28;20128;-40
2023/03/17 00:10:36;;;;;;;8.98;3.78;;;;;;;;;;4984042;28;20216;-44
2023/03/17 00:13:02;;;;;;;11.75;4.60;;;;;;;;;;4985476;28;20127;-42
2023/03/17 00:15:28;;;;;;;15.80;4.13;;;;;;;;;;4988621;28;20049;-41
2023/03/17 00:17:55;;;;;;;12.77;3.97;;;;;;;;;;4990386;28;20566;-43
2023/03/17 00:20:27;;;;;;;6.43;2.42;;;;;;;;;;4990071;28;20127;-40
2023/03/17 00:23:02;;;;;;;4.90;2.90;;;;;;;;;;4993760;28;20050;-43
2023/03/17 00:25:30;;;;;;;6.57;2.30;;;;;;;;;;5032364;28;20044;-43
2023/03/17 00:27:57;;;;;;;7.60;2.10;;;;;;;;;;5037396;28;20065;-44
2023/03/17 00:30:23;;;;;;;7.57;2.10;;;;;;;;;;5036186;28;20077;-44
2023/03/17 00:32:50;;;;;;;10.45;2.22;;;;;;;;;;5032904;28;20061;-45
2023/03/17 00:35:22;;;;;;;10.32;2.20;;;;;;;;;;5034765;28;20109;-45
2023/03/17 00:37:51;;;;;;;10.82;2.00;;;;;;;;;;5038458;28;20098;-41
2023/03/17 00:40:23;;;;;;;8.18;1.92;;;;;;;;;;5030864;28;20439;-40
2023/03/17 00:42:51;;;;;;;14.98;2.40;;;;;;;;;;5034632;28;20053;-40
2023/03/17 00:45:17;;;;;;;10.45;2.13;;;;;;;;;;5040434;28;20025;-42
2023/03/17 00:47:44;;;;;;;9.55;2.28;;;;;;;;;;5034232;28;20090;-42
2023/03/17 00:50:17;;;;;;;9.45;2.38;;;;;;;;;;5035131;28;20922;-45
2023/03/17 00:52:44;;;;;;;14.65;2.30;;;;;;;;;;5032134;28;20042;-45
2023/03/17 00:55:10;;;;;;;11.48;2.17;;;;;;;;;;5035683;28;20017;-44
2023/03/17 00:57:38;;;;;;;7.35;1.83;;;;;;;;;;5053951;28;20401;-40
2023/03/17 01:00:05;;;;;;;7.47;1.88;;;;;;;;;;5039592;28;20025;-40
2023/03/17 01:02:31;;;;;;;9.52;2.15;;;;;;;;;;5032732;28;20399;-41
2023/03/17 01:04:57;;;;;;;9.00;2.00;;;;;;;;;;5035885;28;20044;-48
2023/03/17 01:07:24;;;;;;;12.07;2.53;;;;;;;;;;5037940;28;20136;-42
2023/03/17 01:09:49;;;;;;;10.38;1.83;;;;;;;;;;5033059;28;20037;-41
2023/03/17 01:12:15;;;;;;;4.05;1.95;;;;;;;;;;5027475;28;20061;-44
2023/03/17 01:14:41;;;;;;;7.80;3.03;;;;;;;;;;5037782;28;20494;-46
2023/03/17 01:17:14;;;;;;;7.70;1.77;;;;;;;;;;5033793;28;20398;-43
2023/03/17 01:19:39;;;;;;;9.77;2.00;;;;;;;;;;5034024;28;20026;-42
2023/03/17 01:22:05;;;;;;;9.73;2.33;;;;;;;;;;5035065;28;20188;-44
2023/03/17 01:24:30;;;;;;;6.70;1.77;;;;;;;;;;5030133;28;20064;-41
2023/03/17 01:26:56;;;;;;;5.32;1.75;;;;;;;;;;5036184;28;20048;-42
2023/03/17 01:29:21;;;;;;;5.43;1.95;;;;;;;;;;5033300;28;20038;-43
2023/03/17 01:31:47;;;;;;;12.60;2.03;;;;;;;;;;5039341;28;20053;-41
2023/03/17 01:34:12;;;;;;;8.18;1.70;;;;;;;;;;5031581;28;20031;-43
2023/03/17 01:36:38;;;;;;;5.85;2.00;;;;;;;;;;5032980;28;20738;-45
2023/03/17 01:39:04;;;;;;;6.82;2.65;;;;;;;;;;5035756;28;20563;-43
2023/03/17 01:41:33;;;;;;;8.25;2.28;;;;;;;;;;5032096;28;20049;-41
2023/03/17 01:43:59;;;;;;;10.55;2.60;;;;;;;;;;5033085;28;20477;-42
2023/03/17 01:46:34;;;;;;;6.30;2.08;;;;;;;;;;5038613;28;20053;-41
2023/03/17 01:49:08;;;;;;;5.63;2.05;;;;;;;;;;5033492;28;20029;-42
2023/03/17 01:51:52;;;;;;;10.68;2.70;;;;;;;;;;5033684;28;20049;-43
2023/03/17 01:54:22;;;;;;;11.50;2.40;;;;;;;;;;5032418;28;20040;-45
2023/03/17 01:56:50;;;;;;;10.13;2.38;;;;;;;;;;5031324;28;20045;-44
2023/03/17 01:59:22;;;;;;;5.38;1.75;;;;;;;;;;5032687;28;20035;-44
2023/03/17 02:01:51;;;;;;;7.78;1.77;;;;;;;;;;5032874;28;20040;-45
2023/03/17 02:04:18;;;;;;;10.18;2.35;;;;;;;;;;5033378;28;20589;-42
2023/03/17 02:06:44;;;;;;;9.43;1.90;;;;;;;;;;5029522;28;20048;-42
2023/03/17 02:09:11;;;;;;;4.93;1.80;;;;;;;;;;5035848;28;20066;-42
2023/03/17 02:11:37;;;;;;;6.68;1.90;;;;;;;;;;5034258;28;20052;-44
2023/03/17 02:14:02;;;;;;;6.20;2.17;;;;;;;;;;5034546;28;20034;-41
2023/03/17 02:16:29;;;;;;;4.25;1.95;;;;;;;;;;5027224;28;20068;-44
2023/03/17 02:18:54;;;;;;;9.00;2.00;;;;;;;;;;5035355;28;20033;-41
2023/03/17 02:21:40;;;;;;;6.45;2.10;;;;;;;;;;5029377;28;20052;-44
2023/03/17 02:24:33;;;;;;;3.55;1.60;;;;;;;;;;5027955;28;20087;-46
2023/03/17 02:27:07;;;;;;;4.80;2.10;;;;;;;;;;5033974;28;20048;-44
2023/03/17 02:29:34;;;;;;;7.30;2.00;;;;;;;;;;5030593;28;20036;-42
2023/03/17 02:32:01;;;;;;;8.15;2.05;;;;;;;;;;5034772;28;20059;-42
2023/03/17 02:34:26;;;;;;;5.20;1.75;;;;;;;;;;5032798;28;20569;-43
2023/03/17 02:36:51;;;;;;;13.15;2.40;;;;;;;;;;5034058;28;20041;-45
2023/03/17 02:39:17;;;;;;;6.28;1.75;;;;;;;;;;5029570;28;20053;-48
2023/03/17 02:41:42;;;;;;;4.25;2.03;;;;;;;;;;5029233;28;20132;-45
2023/03/17 02:44:08;;;;;;;9.27;2.05;;;;;;;;;;5030496;28;20030;-43
2023/03/17 02:46:34;;;;;;;12.45;2.08;;;;;;;;;;5032367;28;20095;-47
2023/03/17 02:49:00;;;;;;;5.43;1.73;;;;;;;;;;5031855;28;20033;-45
2023/03/17 02:51:26;;;;;;;9.50;2.10;;;;;;;;;;5031777;28;20052;-44
2023/03/17 02:53:52;;;;;;;6.57;2.10;;;;;;;;;;5034942;28;20473;-42
2023/03/17 02:56:17;;;;;;;4.80;1.80;;;;;;;;;;5031363;28;20099;-42
2023/03/17 02:58:42;;;;;;;4.40;1.73;;;;;;;;;;5034971;28;20032;-46
2023/03/17 03:01:08;;;;;;;3.92;1.88;;;;;;;;;;5033989;28;20057;-44
2023/03/17 03:03:34;;;;;;;7.72;2.25;;;;;;;;;;5037209;28;20029;-43
2023/03/17 03:05:59;;;;;;;10.07;1.85;;;;;;;;;;5033440;28;20029;-46
2023/03/17 03:08:25;;;;;;;5.60;1.80;;;;;;;;;;5033514;28;20030;-47
2023/03/17 03:10:51;;;;;;;7.78;1.65;;;;;;;;;;5034240;28;20029;-45
2023/03/17 03:13:16;;;;;;;10.52;1.73;;;;;;;;;;5028809;28;20072;-46
2023/03/17 03:15:42;;;;;;;10.27;1.60;;;;;;;;;;5029885;28;20932;-44
2023/03/17 03:18:08;;;;;;;4.38;1.95;;;;;;;;;;5034532;28;20040;-47
2023/03/17 03:20:34;;;;;;;6.85;1.92;;;;;;;;;;5031610;28;20041;-44
2023/03/17 03:22:59;;;;;;;5.75;1.83;;;;;;;;;;5036647;28;20108;-46
2023/03/17 03:25:25;;;;;;;11.48;2.17;;;;;;;;;;5029413;28;20033;-47
2023/03/17 03:27:51;;;;;;;5.47;1.65;;;;;;;;;;5031451;28;20095;-44
2023/03/17 03:30:17;;;;;;;6.45;1.75;;;;;;;;;;5031438;28;20024;-48
2023/03/17 03:32:42;;;;;;;7.25;1.55;;;;;;;;;;5029276;28;20037;-47
2023/03/17 03:35:09;;;;;;;6.07;1.85;;;;;;;;;;5032005;28;20038;-46
2023/03/17 03:37:35;;;;;;;4.07;1.88;;;;;;;;;;5032135;28;20581;-46
2023/03/17 03:40:01;;;;;;;4.78;1.75;;;;;;;;;;5032768;28;20025;-46
2023/03/17 03:42:27;;;;;;;6.38;1.73;;;;;;;;;;5034192;28;20039;-44
2023/03/17 03:44:52;;;;;;;5.13;1.50;;;;;;;;;;5031679;28;20029;-47
2023/03/17 03:47:17;;;;;;;4.80;2.13;;;;;;;;;;5032269;28;20517;-43
2023/03/17 03:49:43;;;;;;;6.05;1.50;;;;;;;;;;5035161;28;20636;-41
2023/03/17 03:52:08;;;;;;;4.50;1.73;;;;;;;;;;5031702;28;20130;-42
2023/03/17 03:54:34;;;;;;;10.65;1.95;;;;;;;;;;5036469;28;20079;-44
2023/03/17 03:56:59;;;;;;;5.40;1.58;;;;;;;;;;5037384;28;20069;-44
2023/03/17 03:59:25;;;;;;;4.13;1.95;;;;;;;;;;5035653;28;20036;-41
2023/03/17 04:01:50;;;;;;;8.32;1.85;;;;;;;;;;5037089;28;20055;-43
2023/03/17 04:04:16;;;;;;;3.92;1.60;;;;;;;;;;5035823;28;20044;-41
2023/03/17 04:06:41;;;;;;;6.25;1.90;;;;;;;;;;5041317;28;20049;-42
2023/03/17 04:09:08;;;;;;;6.00;1.92;;;;;;;;;;5035197;28;20481;-48
2023/03/17 04:11:33;;;;;;;8.55;1.92;;;;;;;;;;5032164;28;20083;-43
2023/03/17 04:13:59;;;;;;;7.28;1.38;;;;;;;;;;5034338;28;20025;-40
2023/03/17 04:16:25;;;;;;;7.53;1.80;;;;;;;;;;5037917;28;20493;-43
2023/03/17 04:18:50;;;;;;;8.50;1.80;;;;;;;;;;5035292;28;20121;-44
2023/03/17 04:21:17;;;;;;;3.17;1.45;;;;;;;;;;5031154;28;20115;-47
2023/03/17 04:23:44;;;;;;;4.60;2.42;;;;;;;;;;5035241;28;20021;-46
2023/03/17 04:26:11;;;;;;;6.90;1.58;;;;;;;;;;5032136;28;20037;-41
2023/03/17 04:28:36;;;;;;;6.43;1.60;;;;;;;;;;5036552;28;20025;-41
2023/03/17 04:31:01;;;;;;;6.50;1.70;;;;;;;;;;5033848;28;20075;-43
2023/03/17 04:33:27;;;;;;;6.60;1.85;;;;;;;;;;5033901;28;20119;-48
2023/03/17 04:35:52;;;;;;;6.22;1.60;;;;;;;;;;5038440;28;20017;-41
2023/03/17 04:38:18;;;;;;;5.65;1.50;;;;;;;;;;5038476;28;20041;-41
2023/03/17 04:40:43;;;;;;;3.33;1.50;;;;;;;;;;5034160;28;20040;-40
2023/03/17 04:43:09;;;;;;;6.95;1.83;;;;;;;;;;5040250;28;20124;-44
2023/03/17 04:45:35;;;;;;;10.15;1.55;;;;;;;;;;5036433;28;20033;-41
2023/03/17 04:48:01;;;;;;;8.63;1.95;;;;;;;;;;5033286;28;20042;-46
2023/03/17 04:50:26;;;;;;;3.65;1.27;;;;;;;;;;5035075;28;20086;-47
2023/03/17 04:52:51;;;;;;;4.40;1.58;;;;;;;;;;5035477;28;20520;-42
2023/03/17 04:55:17;;;;;;;7.18;1.20;;;;;;;;;;5036372;28;20044;-43
2023/03/17 04:57:43;;;;;;;7.03;1.67;;;;;;;;;;5033042;28;20479;-41
2023/03/17 05:00:11;;;;;;;5.13;1.45;;;;;;;;;;5031081;28;21073;-40
2023/03/17 05:02:37;;;;;;;7.13;1.88;;;;;;;;;;5036622;28;20069;-41
2023/03/17 05:05:03;;;;;;;4.55;1.77;;;;;;;;;;5040248;28;20107;-41
2023/03/17 05:07:29;;;;;;;7.97;1.30;;;;;;;;;;5035396;28;20041;-44
2023/03/17 05:09:55;;;;;;;6.05;1.50;;;;;;;;;;5030948;28;20028;-47
2023/03/17 05:12:21;;;;;;;6.70;1.25;;;;;;;;;;5032516;28;20075;-44
2023/03/17 05:14:47;;;;;;;7.13;1.40;;;;;;;;;;5034840;28;20053;-41
2023/03/17 05:17:13;;;;;;;6.72;2.13;;;;;;;;;;5032700;28;20124;-40
2023/03/17 05:19:38;;;;;;;3.58;1.52;;;;;;;;;;5036640;28;20470;-40
2023/03/17 05:22:04;;;;;;;4.40;1.20;;;;;;;;;;5031856;28;20121;-44
2023/03/17 05:24:29;;;;;;;2.03;1.35;;;;;;;;;;5034830;28;20087;-40
2023/03/17 05:26:55;;;;;;;4.32;1.23;;;;;;;;;;5031463;28;20045;-40
2023/03/17 05:29:20;;;;;;;7.82;1.50;;;;;;;;;;5032295;28;20103;-40
2023/03/17 05:31:46;;;;;;;3.80;1.38;;;;;;;;;;5034064;28;20092;-42
2023/03/17 05:34:11;;;;;;;7.30;1.52;;;;;;;;;;5036867;28;20044;-42
2023/03/17 05:36:37;;;;;;;2.13;1.15;;;;;;;;;;5030668;28;20033;-42
2023/03/17 05:39:03;;;;;;;5.07;1.35;;;;;;;;;;5030687;28;20068;-42
2023/03/17 05:41:29;;;;;;;5.60;1.40;;;;;;;;;;5026351;28;20050;-41
2023/03/17 05:43:55;;;;;;;2.35;1.17;;;;;;;;;;5028756;28;20108;-43
2023/03/17 05:46:21;;;;;;;1.42;1.10;;;;;;;;;;5027521;28;20394;-40
2023/03/17 05:48:46;;;;;;;4.53;1.45;;;;;;;;;;5030096;28;20040;-44
2023/03/17 05:51:12;;;;;;;3.97;1.52;;;;;;;;;;5033286;28;20025;-44
2023/03/17 05:53:37;;;;;;;4.00;1.23;;;;;;;;;;5032476;28;20032;-49
2023/03/17 05:56:03;;;;;;;2.28;1.25;;;;;;;;;;5035579;28;20485;-42
2023/03/17 05:58:28;;;;;;;4.28;2.15;;;;;;;;;;5034991;28;20108;-41
2023/03/17 06:00:55;;;;;;;3.92;1.40;;;;;;;;;;5031794;28;20486;-40
2023/03/17 06:03:21;;;;;;;1.42;1.33;;;;;;;;;;5037288;28;20059;-41
2023/03/17 06:05:46;;;;;;;3.60;1.10;;;;;;;;;;5020287;28;20114;-40
2023/03/17 06:08:12;;;;;;;6.57;1.38;;;;;;;;;;5034101;28;20125;-45
2023/03/17 06:10:38;;;;;;;3.90;1.17;;;;;;;;;;5027819;28;20048;-42
2023/03/17 06:13:03;;;;;;;4.28;1.30;;;;;;;;;;5030824;28;20481;-41
2023/03/17 06:15:29;;;;;;;1.23;1.00;;;;;;;;;;5031181;28;20033;-43
2023/03/17 06:17:54;;;;;;;2.83;1.08;;;;;;;;;;5028634;28;20661;-40
2023/03/17 06:20:19;;;;;;;4.07;1.23;;;;;;;;;;5029729;28;20493;-44
2023/03/17 06:22:45;;;;;;;2.60;1.00;;;;;;;;;;5028113;28;20111;-45
2023/03/17 06:25:11;;;;;;;1.95;1.27;;;;;;;;;;5031179;28;20025;-41
2023/03/17 06:27:37;;;;;;;10.00;1.30;;;;;;;;;;5035005;28;20041;-41
2023/03/17 06:30:04;;;;;;;1.88;1.30;;;;;;;;;;5031158;28;20029;-43
2023/03/17 06:32:30;;;;;;;5.05;1.73;;;;;;;;;;5035335;28;20060;-44
2023/03/17 06:34:56;;;;;;;3.85;1.30;;;;;;;;;;5029059;28;20474;-41
2023/03/17 06:37:21;;;;;;;1.70;1.17;;;;;;;;;;5025296;28;20110;-42
2023/03/17 06:39:47;;;;;;;5.03;1.13;;;;;;;;;;5029151;28;20490;-41
2023/03/17 06:42:13;;;;;;;5.65;1.38;;;;;;;;;;5025071;28;20107;-41
2023/03/17 06:44:39;;;;;;;3.10;1.17;;;;;;;;;;5031350;28;20037;-42
2023/03/17 06:47:05;;;;;;;5.82;1.10;;;;;;;;;;5033945;28;20064;-41
2023/03/17 06:49:31;;;;;;;3.47;1.08;;;;;;;;;;5034410;28;20498;-41
2023/03/17 06:51:57;;;;;;;3.80;1.13;;;;;;;;;;5030114;28;20041;-41
2023/03/17 06:54:24;;;;;;;2.25;1.20;;;;;;;;;;5033849;28;20036;-45
2023/03/17 06:56:50;;;;;;;2.67;1.08;;;;;;;;;;5038834;28;20087;-41
2023/03/17 06:59:16;;;;;;;1.38;1.20;;;;;;;;;;5032771;28;20586;-41
2023/03/17 07:01:42;;;;;;;2.67;1.20;;;;;;;;;;5033554;28;20062;-48
2023/03/17 07:04:08;;;;;;;1.55;1.02;;;;;;;;;;5024468;28;20025;-45
2023/03/17 07:06:33;;;;;;;1.63;1.02;;;;;;;;;;5032065;28;20037;-41
2023/03/17 07:08:59;;;;;;;1.17;1.10;;;;;;;;;;5032735;28;20124;-42
2023/03/17 07:11:25;;;;;;;1.00;1.00;;;;;;;;;;5032725;28;20045;-41
2023/03/17 07:13:50;;;;;;;1.58;1.48;;;;;;;;;;5034256;28;20029;-43
2023/03/17 07:16:18;;;;;;;3.78;1.20;;;;;;;;;;5024579;28;20037;-41
2023/03/17 07:18:44;;;;;;;1.75;1.05;;;;;;;;;;5030881;28;20385;-45
2023/03/17 07:21:09;;;;;;;1.27;1.10;;;;;;;;;;5037007;28;20025;-42
2023/03/17 07:23:35;;;;;;;1.33;1.10;;;;;;;;;;5034033;28;20030;-45
2023/03/17 07:26:01;;;;;;;1.83;1.00;;;;;;;;;;5027860;28;20489;-42
2023/03/17 07:28:27;;;;;;;2.88;1.20;;;;;;;;;;5036408;28;20104;-42
2023/03/17 07:30:52;;;;;;;7.65;1.10;;;;;;;;;;5029811;28;20116;-41
2023/03/17 07:33:20;;;;;;;5.80;0.90;;;;;;;;;;5034362;28;20462;-43
2023/03/17 07:35:46;;;;;;;1.17;0.80;;;;;;;;;;5038228;28;20032;-41
2023/03/17 07:38:12;;;;;;;1.63;1.10;;;;;;;;;;5033661;28;20116;-41
2023/03/17 07:40:37;;;;;;;3.13;0.70;;;;;;;;;;5034271;28;20534;-41
2023/03/17 07:43:03;;;;;;;2.75;1.02;;;;;;;;;;5035462;28;20041;-41
2023/03/17 07:45:29;;;;;;;1.73;0.93;;;;;;;;;;5038463;28;20033;-42
2023/03/17 07:47:55;;;;;;;1.60;0.85;;;;;;;;;;5037528;28;20065;-40
2023/03/17 07:50:20;;;;;;;1.75;0.98;;;;;;;;;;5037916;28;20102;-40
2023/03/17 07:52:46;;;;;;;7.15;1.20;;;;;;;;;;5037015;28;20029;-41
2023/03/17 07:55:11;;;;;;;4.00;1.05;;;;;;;;;;5035250;28;20037;-41
2023/03/17 07:57:37;;;;;;;2.22;0.93;;;;;;;;;;5036607;28;20037;-41
2023/03/17 08:00:07;;;;;;;3.22;0.98;;;;;;;;;;5041489;28;20044;-44
2023/03/17 08:02:33;;;;;;;2.10;1.15;;;;;;;;;;5038449;28;20036;-44
2023/03/17 08:04:59;;;;;;;3.50;1.27;;;;;;;;;;5039370;28;20389;-41
2023/03/17 08:07:24;;;;;;;1.73;0.80;;;;;;;;;;5037320;28;20041;-41
2023/03/17 08:09:50;;;;;;;2.47;1.20;;;;;;;;;;5036725;28;20536;-43
2023/03/17 08:12:15;;;;;;;2.13;1.27;;;;;;;;;;5037272;28;20033;-41
2023/03/17 08:14:40;;;;;;;5.97;1.30;;;;;;;;;;5038459;28;20374;-41
2023/03/17 08:17:06;;;;;;;3.80;1.10;;;;;;;;;;5031522;28;20128;-42
2023/03/17 08:19:32;;;;;;;2.17;1.10;;;;;;;;;;5032513;28;20649;-43
2023/03/17 08:21:57;;;;;;;4.20;1.13;;;;;;;;;;5038667;28;20084;-41
2023/03/17 08:24:22;;;;;;;1.25;0.80;;;;;;;;;;5037817;28;20365;-42
2023/03/17 08:26:48;;;;;;;7.57;1.17;;;;;;;;;;5041814;28;20055;-41
2023/03/17 08:29:14;;;;;;;3.22;1.13;;;;;;;;;;5038641;28;20021;-41
2023/03/17 08:31:40;;;;;;;1.25;1.00;;;;;;;;;;5032044;28;20052;-41
2023/03/17 08:34:06;;;;;;;2.75;1.20;;;;;;;;;;5031588;28;20030;-42
2023/03/17 08:36:32;;;;;;;0.98;0.77;;;;;;;;;;5040768;28;20500;-41
2023/03/17 08:38:58;;;;;;;2.25;1.10;;;;;;;;;;5037699;28;20025;-41
2023/03/17 08:41:25;;;;;;;3.60;1.60;;;;;;;;;;5035491;28;20116;-41
2023/03/17 08:43:51;;;;;;;1.48;1.05;;;;;;;;;;5032838;28;20062;-41
2023/03/17 08:46:23;;;;;;;1.67;0.90;;;;;;;;;;5037715;28;20050;-41
2023/03/17 08:48:50;;;;;;;9.45;1.33;;;;;;;;;;5036742;28;21149;-42
2023/03/17 08:51:17;;;;;;;4.93;1.50;;;;;;;;;;5035685;28;20107;-42
2023/03/17 08:53:42;;;;;;;6.97;1.60;;;;;;;;;;5035132;28;20029;-41
2023/03/17 08:56:08;;;;;;;2.97;1.40;;;;;;;;;;5037573;28;20035;-41
2023/03/17 08:58:35;;;;;;;1.48;1.38;;;;;;;;;;5037868;28;20060;-47
2023/03/17 09:01:03;;;;;;;5.47;1.58;;;;;;;;;;5027800;28;20116;-47
2023/03/17 09:03:29;;;;;;;5.03;1.02;;;;;;;;;;5036711;28;20492;-44
2023/03/17 09:05:55;;;;;;;1.60;1.30;;;;;;;;;;5034676;28;20059;-43
2023/03/17 09:08:21;;;;;;;6.50;1.30;;;;;;;;;;5033480;28;20636;-46
2023/03/17 09:10:47;;;;;;;5.07;1.70;;;;;;;;;;5036536;28;20029;-44
2023/03/17 09:13:12;;;;;;;2.10;1.23;;;;;;;;;;5033881;28;20048;-42
2023/03/17 09:15:38;;;;;;;3.95;1.17;;;;;;;;;;5035830;28;20108;-47
2023/03/17 09:18:05;;;;;;;2.90;1.52;;;;;;;;;;5032164;28;20042;-43
2023/03/17 09:20:31;;;;;;;6.35;1.23;;;;;;;;;;5030752;28;20029;-47
2023/03/17 09:22:57;;;;;;;3.25;1.30;;;;;;;;;;5037084;28;20057;-45
2023/03/17 09:25:23;;;;;;;6.05;1.77;;;;;;;;;;5031705;28;20041;-43
2023/03/17 09:27:49;;;;;;;2.20;1.45;;;;;;;;;;5032488;28;20087;-45
2023/03/17 09:30:16;;;;;;;3.42;1.20;;;;;;;;;;5031404;28;20420;-43
2023/03/17 09:32:43;;;;;;;2.30;1.20;;;;;;;;;;5031176;28;20052;-45
2023/03/17 09:35:09;;;;;;;6.00;1.80;;;;;;;;;;5030225;28;20033;-42
2023/03/17 09:37:35;;;;;;;2.83;1.65;;;;;;;;;;5034170;28;20110;-42
2023/03/17 09:40:02;;;;;;;3.70;1.95;;;;;;;;;;5036046;28;20498;-42
2023/03/17 09:42:42;;;;;;;8.73;1.80;;;;;;;;;;5033155;28;20071;-42
2023/03/17 09:45:31;;;;;;;7.03;1.60;;;;;;;;;;5031525;28;20032;-45
2023/03/17 09:48:17;;;;;;;10.45;2.05;;;;;;;;;;5031206;28;20037;-47
2023/03/17 09:51:09;;;;;;;11.02;1.40;;;;;;;;;;5031387;28;20029;-44
2023/03/17 09:53:52;;;;;;;5.88;1.60;;;;;;;;;;5035158;28;20038;-47
2023/03/17 09:56:18;;;;;;;3.92;1.88;;;;;;;;;;5031146;28;20049;-41
2023/03/17 09:59:13;;;;;;;2.22;1.52;;;;;;;;;;5034393;28;20036;-45
2023/03/17 10:01:41;;;;;;;6.93;1.90;;;;;;;;;;4988255;28;20042;-45
2023/03/17 10:04:09;;;;;;;2.33;1.40;;;;;;;;;;4987844;28;20045;-45
2023/03/17 10:06:43;;;;;;;10.63;1.92;;;;;;;;;;4985000;28;20042;-46
2023/03/17 10:09:22;;;;;;;2.97;1.90;;;;;;;;;;4988159;28;20030;-43
2023/03/17 10:12:00;;;;;;;7.80;2.25;;;;;;;;;;4986510;28;20045;-44
2023/03/17 10:14:40;;;;;;;4.25;1.90;;;;;;;;;;4983879;28;20133;-42
2023/03/17 10:17:15;;;;;;;4.25;2.00;;;;;;;;;;4987632;28;20038;-44
2023/03/17 10:20:15;;;;;;;2.38;2.00;;;;;;;;;;4987787;28;20081;-43
2023/03/17 10:22:51;;;;;;;4.43;1.55;;;;;;;;;;4927129;28;20079;-45
2023/03/17 10:25:21;;;;;;;3.45;1.40;;;;;;;;;;4926437;28;20043;-47
2023/03/17 10:28:11;;;;;;;5.30;1.77;;;;;;;;;;4932337;28;20131;-42
2023/03/17 10:30:37;;;;;;;5.25;1.50;;;;;;;;;;4927737;29;20074;-46
2023/03/17 10:33:07;;;;;;;4.32;1.80;;;;;;;;;;4923754;29;20536;-44
2023/03/17 10:35:35;;;;;;;4.00;1.38;;;;;;;;;;4923036;29;20040;-43
2023/03/17 10:38:01;;;;;;;2.17;1.67;;;;;;;;;;4940024;28;20045;-47
2023/03/17 10:40:29;;;;;;;8.07;2.00;;;;;;;;;;4985120;28;20034;-42
2023/03/17 10:43:06;;;;;;;2.47;1.10;;;;;;;;;;4993029;28;20125;-43
2023/03/17 10:45:39;;;;;;;4.35;1.55;;;;;;;;;;4979822;28;20045;-44
2023/03/17 10:48:08;;;;;;;14.45;1.63;;;;;;;;;;4976190;28;20057;-43
2023/03/17 10:50:38;;;;;;;5.25;1.30;;;;;;;;;;4975045;28;20069;-43
2023/03/17 10:53:29;;;;;;;2.42;1.15;;;;;;;;;;4992838;28;20042;-42
2023/03/17 10:56:21;;;;;;;7.68;1.30;;;;;;;;;;4978685;28;20030;-44
2023/03/17 10:58:49;;;;;;;3.08;1.50;;;;;;;;;;4989751;28;20095;-44
2023/03/17 11:01:18;;;;;;;4.72;1.38;;;;;;;;;;5021173;28;20060;-45
2023/03/17 11:03:46;;;;;;;3.20;1.30;;;;;;;;;;5029841;28;20037;-45
2023/03/17 11:06:15;;;;;;;11.30;1.48;;;;;;;;;;5028474;28;20018;-41
2023/03/17 11:08:48;;;;;;;3.97;1.23;;;;;;;;;;5036123;28;20078;-42
2023/03/17 11:11:25;;;;;;;1.83;1.30;;;;;;;;;;5027027;28;20075;-42
2023/03/17 11:14:10;;;;;;;4.70;1.10;;;;;;;;;;5031913;28;20033;-44
2023/03/17 11:16:49;;;;;;;13.00;1.83;;;;;;;;;;5034224;28;20776;-42
2023/03/17 11:19:17;;;;;;;11.73;1.80;;;;;;;;;;5029321;28;20026;-42
2023/03/17 11:22:00;;;;;;;1.35;1.25;;;;;;;;;;5036055;28;20048;-41
2023/03/17 11:24:31;;;;;;;8.70;1.55;;;;;;;;;;5033429;28;20033;-42
2023/03/17 11:27:09;;;;;;;10.43;1.60;;;;;;;;;;5032301;28;20391;-44
2023/03/17 11:29:35;;;;;;;1.80;1.30;;;;;;;;;;5030566;28;20025;-42
2023/03/17 11:32:03;;;;;;;1.70;1.10;;;;;;;;;;5033633;28;20199;-42
2023/03/17 11:34:45;;;;;;;2.88;1.17;;;;;;;;;;5027924;28;20021;-41
2023/03/17 11:37:27;;;;;;;3.20;1.20;;;;;;;;;;5026360;28;20045;-48
2023/03/17 11:40:06;;;;;;;2.22;1.13;;;;;;;;;;5022334;28;20037;-47
2023/03/17 11:42:51;;;;;;;1.00;0.98;;;;;;;;;;5021568;28;20042;-42
2023/03/17 11:45:47;;;;;;;2.80;1.35;;;;;;;;;;5030075;28;20033;-42
2023/03/17 11:48:21;;;;;;;3.63;1.30;;;;;;;;;;5035067;28;20375;-44
2023/03/17 11:51:09;;;;;;;5.38;1.20;;;;;;;;;;5028420;28;20382;-47
2023/03/17 11:53:46;;;;;;;3.03;0.90;;;;;;;;;;5033522;28;20554;-42
2023/03/17 11:56:38;;;;;;;1.23;1.13;;;;;;;;;;5035303;28;20560;-49
2023/03/17 11:59:17;;;;;;;6.47;1.08;;;;;;;;;;5028208;28;20099;-43
2023/03/17 12:02:18;;;;;;;1.58;1.20;;;;;;;;;;5027438;28;20406;-41
2023/03/17 12:05:01;;;;;;;1.15;1.05;;;;;;;;;;4969581;28;20446;-41
2023/03/17 12:07:46;;;;;;;1.45;1.13;;;;;;;;;;4972665;28;20481;-45
2023/03/17 12:10:25;;;;;;;1.05;0.93;;;;;;;;;;4974674;28;20042;-46
2023/03/17 12:13:15;;;;;;;3.70;1.25;;;;;;;;;;4973356;28;20553;-45
2023/03/17 12:15:47;;;;;;;1.52;1.08;;;;;;;;;;4979000;28;20129;-41
2023/03/17 12:18:36;;;;;;;2.85;1.10;;;;;;;;;;4976516;28;20092;-44
2023/03/17 12:21:04;;;;;;;9.30;1.70;;;;;;;;;;4972964;28;20122;-43
2023/03/17 12:23:49;;;;;;;1.50;1.10;;;;;;;;;;4979355;28;20488;-40
2023/03/17 12:26:23;;;;;;;5.63;1.40;;;;;;;;;;4969226;28;20112;-43
2023/03/17 12:29:11;;;;;;;7.07;1.40;;;;;;;;;;4973979;28;20173;-43
2023/03/17 12:31:43;;;;;;;4.68;1.40;;;;;;;;;;4971889;28;20050;-47
2023/03/17 12:34:17;;;;;;;4.43;1.55;;;;;;;;;;4968005;28;20451;-46
2023/03/17 12:36:43;;;;;;;4.10;1.48;;;;;;;;;;4973404;28;20047;-45
2023/03/17 12:39:15;;;;;;;7.55;1.15;;;;;;;;;;4967581;28;20050;-42
2023/03/17 12:42:01;;;;;;;;;;;;;;;;;;5008528;28;20091;-44
2023/03/17 12:44:45;;;;;;;1.45;1.17;;;;;;;;;;5036085;28;20313;-47
2023/03/17 12:47:36;;;;;;;4.90;1.27;;;;;;;;;;5035805;28;20445;-43
2023/03/17 12:50:14;;;;;;;1.30;1.15;;;;;;;;;;5030868;28;20502;-48
2023/03/17 12:53:18;;;;;;;5.03;1.75;;;;;;;;;;5030196;28;20044;-45
2023/03/17 12:55:46;;;;;;;2.03;1.23;;;;;;;;;;5034228;28;20032;-41
2023/03/17 12:58:34;;;;;;;3.60;1.67;;;;;;;;;;5033550;28;20026;-42
2023/03/17 13:01:18;;;;;;;4.65;2.20;;;;;;;;;;5035964;28;20064;-43
2023/03/17 13:03:56;;;;;;;5.20;1.50;;;;;;;;;;5030584;28;20029;-43
2023/03/17 13:06:23;;;;;;;2.78;1.38;;;;;;;;;;5034263;28;20573;-43
2023/03/17 13:08:50;;;;;;;6.28;1.40;;;;;;;;;;5031207;28;20025;-41
2023/03/17 13:11:35;;;;;;;9.25;1.60;;;;;;;;;;5033859;28;20029;-47
2023/03/17 13:14:25;;;;;;;7.22;1.52;;;;;;;;;;5033613;28;20025;-42
2023/03/17 13:16:51;;;;;;;9.57;1.40;;;;;;;;;;5032482;28;20044;-41
2023/03/17 13:19:24;;;;;;;2.42;1.20;;;;;;;;;;5031780;28;20045;-42
2023/03/17 13:22:10;;;;;;;1.50;1.17;;;;;;;;;;5033324;28;20091;-44
2023/03/17 13:24:48;;;;;;;5.32;1.13;;;;;;;;;;5030197;28;20044;-41
2023/03/17 13:27:33;;;;;;;6.15;1.25;;;;;;;;;;5028164;28;20401;-42
2023/03/17 13:30:24;;;;;;;2.78;1.30;;;;;;;;;;5026437;28;20132;-43
2023/03/17 13:33:18;;;;;;;4.57;1.20;;;;;;;;;;5030497;28;20049;-41
2023/03/17 13:36:35;;;;;;;2.88;1.33;;;;;;;;;;5032861;28;20029;-41
2023/03/17 13:39:10;;;;;;;8.65;1.15;;;;;;;;;;4964745;28;20043;-41
2023/03/17 13:41:47;;;;;;;8.32;1.40;;;;;;;;;;4973571;28;20049;-44
2023/03/17 13:44:31;;;;;;;2.25;1.20;;;;;;;;;;4967576;28;20070;-40
2023/03/17 13:47:16;;;;;;;3.65;1.23;;;;;;;;;;4965837;28;20125;-41
2023/03/17 13:49:46;;;;;;;2.78;1.27;;;;;;;;;;4968018;28;20043;-43
2023/03/17 13:52:14;;;;;;;10.40;1.30;;;;;;;;;;4965687;28;20158;-42
2023/03/17 13:54:59;;;;;;;6.55;1.50;;;;;;;;;;4966476;28;20121;-41
2023/03/17 13:57:28;;;;;;;4.03;1.83;;;;;;;;;;4968186;28;20245;-41
2023/03/17 14:00:02;;;;;;;3.92;1.17;;;;;;;;;;4965815;28;20081;-45
2023/03/17 14:02:31;;;;;;;2.45;1.25;;;;;;;;;;4966183;28;20038;-41
2023/03/17 14:05:01;;;;;;;3.80;1.30;;;;;;;;;;4963058;28;20030;-46
2023/03/17 14:07:36;;;;;;;4.63;1.20;;;;;;;;;;4965067;28;20039;-45
2023/03/17 14:10:04;;;;;;;1.25;1.02;;;;;;;;;;4965881;28;20026;-43
2023/03/17 14:12:35;;;;;;;5.65;1.63;;;;;;;;;;4956279;28;20475;-43
2023/03/17 14:15:18;;;;;;;1.38;1.08;;;;;;;;;;5006093;28;20085;-42
2023/03/17 14:17:51;;;;;;;2.72;1.40;;;;;;;;;;5021698;28;20551;-41
2023/03/17 14:20:17;;;;;;;2.03;1.30;;;;;;;;;;5023406;28;20868;-43
2023/03/17 14:22:51;;;;;;;2.70;1.27;;;;;;;;;;5019437;28;20156;-42
2023/03/17 14:25:23;;;;;;;4.95;1.30;;;;;;;;;;5014209;28;22117;-41
2023/03/17 14:27:52;;;;;;;2.72;1.25;;;;;;;;;;5019353;28;20490;-41
2023/03/17 14:30:20;;;;;;;4.30;1.60;;;;;;;;;;5032034;28;20129;-41
2023/03/17 14:32:49;;;;;;;6.30;1.42;;;;;;;;;;5036260;28;20037;-40
2023/03/17 14:35:15;;;;;;;4.85;1.33;;;;;;;;;;5034829;28;20052;-40
2023/03/17 14:37:40;;;;;;;3.25;1.15;;;;;;;;;;5028124;28;20475;-42
2023/03/17 14:40:21;;;;;;;4.07;1.30;;;;;;;;;;5036072;28;20013;-39
2023/03/17 14:42:46;;;;;;;3.22;1.60;;;;;;;;;;5030488;28;20116;-44
2023/03/17 14:45:45;;;;;;;4.18;1.80;;;;;;;;;;5028806;28;20199;-46
2023/03/17 14:48:13;;;;;;;6.32;1.42;;;;;;;;;;5031965;28;20037;-43
2023/03/17 14:50:48;;;;;;;6.97;1.13;;;;;;;;;;5029674;28;21118;-41
2023/03/17 14:53:14;;;;;;;4.15;1.98;;;;;;;;;;5029507;28;20080;-42
2023/03/17 14:55:41;;;;;;;2.67;1.52;;;;;;;;;;5035212;28;20053;-41
2023/03/17 14:58:23;;;;;;;1.58;1.45;;;;;;;;;;5034980;28;20033;-50
2023/03/17 15:01:01;;;;;;;1.53;1.43;;;;;;;;;;5032711;28;20030;-47